Atkinson, Illinois
Current Conditions -  °F | °C
As of 1:52 AM on Saturday 20 Dec 2014 (Local Time) from KMLI Reporting Station
Overcast Overcast  
Wind Chill: 29°   Ceiling: 3900
Heat Index: 29°   Visibility: 8mi
Dew Point: 24°   Wind: 0mph
Humidity: 82%   Direction: NA
Pressure: 30.26"   Gusts: NA
Location:  41.42°N, 90.02°W
Report Text: KMLI 200752Z AUTO 00000KT 8SM BKN039 OVC050 M02/M04 A3026 RMK AO2 SLP255 T10171044
Loading
Personal Weather Stations






























Interactive Weather Map New forecast layout! Learn more

10-Day Weather Forecast

Advertisements
Track Severe Weather on mobile